createdAt,value
2023-05-05T00:01:09.941Z,100154.72
2023-05-05T00:03:43.880Z,100161.56
2023-05-05T00:06:14.273Z,100154.63
2023-05-05T00:08:45.918Z,100152.88
2023-05-05T00:11:15.585Z,100142.53
2023-05-05T00:13:49.856Z,100151.97
2023-05-05T00:16:19.668Z,100148.50
2023-05-05T00:18:48.924Z,100145.94
2023-05-05T00:21:18.977Z,100131.31
2023-05-05T00:23:56.254Z,100139.88
2023-05-05T00:26:25.551Z,100139.00
2023-05-05T00:28:55.416Z,100139.84
2023-05-05T00:31:37.195Z,100135.56
2023-05-05T00:34:06.581Z,100129.56
2023-05-05T00:36:36.075Z,100133.06
2023-05-05T00:39:12.930Z,100144.19
2023-05-05T00:41:42.903Z,100139.88
2023-05-05T00:44:17.213Z,100137.22
2023-05-05T00:46:46.885Z,100128.59
2023-05-05T00:49:16.080Z,100135.47
2023-05-05T00:51:45.741Z,100137.09
2023-05-05T00:54:17.388Z,100130.97
2023-05-05T00:56:47.829Z,100136.06
2023-05-05T00:59:17.195Z,100139.47
2023-05-05T01:01:52.905Z,100125.69
2023-05-05T01:04:22.200Z,100131.78
2023-05-05T01:07:01.306Z,100133.56
2023-05-05T01:09:40.850Z,100122.47
2023-05-05T01:12:23.078Z,100126.78
2023-05-05T01:15:07.157Z,100134.50
2023-05-05T01:17:54.390Z,100125.00
2023-05-05T01:20:31.028Z,100126.59
2023-05-05T01:23:08.289Z,100130.78
2023-05-05T01:26:06.330Z,100125.59
2023-05-05T01:29:07.852Z,100121.25
2023-05-05T01:31:59.648Z,100103.19
2023-05-05T01:34:37.723Z,100122.25
2023-05-05T01:37:13.496Z,100125.69
2023-05-05T01:39:45.652Z,100114.53
2023-05-05T01:42:15.769Z,100111.97
2023-05-05T01:44:46.667Z,100111.94
2023-05-05T01:47:20.863Z,100115.34
2023-05-05T01:49:51.806Z,100123.06
2023-05-05T01:52:22.383Z,100105.84
2023-05-05T01:54:59.433Z,100124.81
2023-05-05T01:57:33.122Z,100113.59
2023-05-05T02:00:06.318Z,100121.31
2023-05-05T02:02:48.701Z,100122.22
2023-05-05T02:05:26.858Z,100117.94
2023-05-05T02:07:59.735Z,100115.38
2023-05-05T02:10:31.063Z,100105.97
2023-05-05T02:13:06.455Z,100105.97
2023-05-05T02:15:37.173Z,100104.28
2023-05-05T02:18:10.407Z,100116.38
2023-05-05T02:20:47.513Z,100111.34
2023-05-05T02:23:16.610Z,100098.47
2023-05-05T02:26:07.147Z,100095.94
2023-05-05T02:28:42.612Z,100101.09
2023-05-05T02:31:14.644Z,100114.91
2023-05-05T02:33:47.592Z,100102.84
2023-05-05T02:36:22.126Z,100118.34
2023-05-05T02:39:13.136Z,100114.91
2023-05-05T02:41:44.828Z,100108.91
2023-05-05T02:44:26.762Z,100114.09
2023-05-05T02:46:57.709Z,100107.28
2023-05-05T02:49:35.917Z,100105.59
2023-05-05T02:54:42.609Z,100104.84
2023-05-05T02:57:29.541Z,100105.75
2023-05-05T03:00:07.951Z,100104.06
2023-05-05T03:02:46.001Z,100108.38
2023-05-05T03:05:25.072Z,100084.28
2023-05-05T03:08:09.381Z,100099.75
2023-05-05T03:10:48.795Z,100110.06
2023-05-05T03:13:25.901Z,100105.75
2023-05-05T03:18:40.076Z,100110.06
2023-05-05T03:21:11.725Z,100108.38
2023-05-05T03:23:48.718Z,100110.09
2023-05-05T03:26:22.349Z,100106.66
2023-05-05T03:28:51.580Z,100105.81
2023-05-05T03:31:29.292Z,100103.25
2023-05-05T03:34:06.796Z,100107.50
2023-05-05T03:36:44.209Z,100104.94
2023-05-05T03:39:15.703Z,100103.22
2023-05-05T03:42:00.376Z,100103.22
2023-05-05T03:44:33.450Z,100098.06
2023-05-05T03:47:08.174Z,100101.53
2023-05-05T03:49:39.772Z,100104.94
2023-05-05T03:52:13.824Z,100090.31
2023-05-05T03:54:50.235Z,100102.38
2023-05-05T03:57:20.537Z,100111.00
2023-05-05T03:59:49.803Z,100091.19
2023-05-05T04:02:19.131Z,100109.25
2023-05-05T04:04:49.475Z,100130.72
2023-05-05T04:07:26.784Z,100129.00
2023-05-05T04:10:09.839Z,100136.75
2023-05-05T04:12:39.614Z,100124.72
2023-05-05T04:15:10.209Z,100124.72
2023-05-05T04:17:45.069Z,100132.47
2023-05-05T04:20:14.671Z,100104.09
2023-05-05T04:22:45.949Z,100108.38
2023-05-05T04:25:15.537Z,100111.00
2023-05-05T04:27:45.976Z,100137.63
2023-05-05T04:30:16.852Z,100135.91
2023-05-05T04:32:46.616Z,100131.59
2023-05-05T04:35:16.259Z,100129.00
2023-05-05T04:37:48.425Z,100151.38
2023-05-05T04:40:28.871Z,100141.06
2023-05-05T04:43:03.668Z,100145.34
2023-05-05T04:45:32.819Z,100153.06
2023-05-05T04:48:09.840Z,100153.06
2023-05-05T04:53:20.994Z,100142.78
2023-05-05T04:55:50.360Z,100159.13
2023-05-05T04:58:20.300Z,100171.06
2023-05-05T05:00:54.656Z,100172.63
2023-05-05T05:03:24.069Z,100167.47
2023-05-05T05:05:54.156Z,100180.28
2023-05-05T05:11:06.108Z,100173.38
2023-05-05T05:13:35.308Z,100176.75
2023-05-05T05:16:04.901Z,100170.59
2023-05-05T05:18:34.091Z,100188.66
2023-05-05T05:21:03.726Z,100180.13
2023-05-05T05:23:35.594Z,100152.63
2023-05-05T05:26:05.048Z,100191.03
2023-05-05T05:28:39.766Z,100193.53
2023-05-05T05:31:09.294Z,100199.44
2023-05-05T05:33:39.055Z,100208.16
2023-05-05T05:38:47.675Z,100142.41
2023-05-05T05:41:27.515Z,100192.16
2023-05-05T05:43:57.373Z,100165.56
2023-05-05T05:46:26.556Z,100188.69
2023-05-05T05:49:00.891Z,100187.88
2023-05-05T05:51:31.229Z,100180.28
2023-05-05T05:54:02.558Z,100180.25
2023-05-05T05:56:32.973Z,100191.41
2023-05-05T05:59:04.289Z,100185.44
2023-05-05T06:01:40.099Z,100180.41
2023-05-05T06:04:09.489Z,100198.47
2023-05-05T06:06:40.809Z,100195.97
2023-05-05T06:09:12.192Z,100209.84
2023-05-05T06:11:54.461Z,100199.63
2023-05-05T06:14:23.733Z,100170.34
2023-05-05T06:16:53.391Z,100189.25
2023-05-05T06:19:29.993Z,100197.03
2023-05-05T06:21:59.418Z,100199.63
2023-05-05T06:24:32.118Z,100192.72
2023-05-05T06:27:02.460Z,100199.59
2023-05-05T06:29:31.601Z,100202.19
2023-05-05T06:32:00.992Z,100182.41
2023-05-05T06:34:30.419Z,100203.94
2023-05-05T06:37:04.798Z,100187.56
2023-05-05T06:39:36.095Z,100210.78
2023-05-05T06:44:41.213Z,100192.66
2023-05-05T06:47:10.551Z,100164.28
2023-05-05T06:49:44.691Z,100209.03
2023-05-05T06:52:14.003Z,100204.78
2023-05-05T06:54:45.801Z,100199.59
2023-05-05T06:57:14.696Z,100217.69
2023-05-05T06:59:43.922Z,100209.94
2023-05-05T07:02:13.223Z,100221.13
2023-05-05T07:04:42.436Z,100211.59
2023-05-05T07:07:17.982Z,100208.13
2023-05-05T07:09:49.450Z,100200.28
2023-05-05T07:12:18.787Z,100220.94
2023-05-05T07:14:48.888Z,100220.19
2023-05-05T07:17:18.323Z,100208.19
2023-05-05T07:19:48.408Z,100225.44
2023-05-05T07:22:17.933Z,100224.56
2023-05-05T07:24:50.471Z,100223.72
2023-05-05T07:27:21.144Z,100232.28
2023-05-05T07:29:50.374Z,100223.59
2023-05-05T07:32:19.746Z,100238.16
2023-05-05T07:34:49.171Z,100203.75
2023-05-05T07:37:23.734Z,100218.44
2023-05-05T07:39:54.931Z,100248.59
2023-05-05T07:42:36.123Z,100214.25
2023-05-05T07:45:06.910Z,100227.13
2023-05-05T07:47:36.217Z,100227.13
2023-05-05T07:50:10.972Z,100249.53
2023-05-05T07:55:20.920Z,100252.13
2023-05-05T07:57:50.503Z,100210.81
2023-05-05T08:00:21.447Z,100239.22
2023-05-05T08:02:51.153Z,100243.50
2023-05-05T08:05:35.285Z,100250.38
2023-05-05T08:08:05.850Z,100253.81
2023-05-05T08:10:37.041Z,100259.84
2023-05-05T08:13:06.337Z,100244.38
2023-05-05T08:15:35.657Z,100266.75
2023-05-05T08:18:04.937Z,100271.06
2023-05-05T08:20:34.206Z,100274.50
2023-05-05T08:23:03.553Z,100268.44
2023-05-05T08:25:32.804Z,100265.88
2023-05-05T08:28:04.425Z,100292.59
2023-05-05T08:30:59.387Z,100283.97
2023-05-05T08:33:28.794Z,100282.28
2023-05-05T08:35:58.066Z,100297.75
2023-05-05T08:38:32.926Z,100305.50
2023-05-05T08:41:02.255Z,100303.81
2023-05-05T08:43:35.620Z,100308.09
2023-05-05T08:46:06.228Z,100272.78
2023-05-05T08:48:37.386Z,100324.19
2023-05-05T08:51:08.585Z,100306.91
2023-05-05T08:53:48.644Z,100323.00
2023-05-05T08:56:19.490Z,100313.47
2023-05-05T08:58:51.569Z,100318.03
2023-05-05T09:01:20.976Z,100330.91
2023-05-05T09:03:51.100Z,100345.38
2023-05-05T09:06:32.047Z,100344.53
2023-05-05T09:09:02.584Z,100325.03
2023-05-05T09:11:31.923Z,100334.63
2023-05-05T09:14:03.659Z,100321.00
2023-05-05T09:16:46.209Z,100331.28
2023-05-05T09:19:15.488Z,100322.50
2023-05-05T09:21:50.474Z,100316.63
2023-05-05T09:24:20.073Z,100311.53
2023-05-05T09:26:56.900Z,100339.09
2023-05-05T09:29:29.530Z,100327.84
2023-05-05T09:32:08.085Z,100329.41
2023-05-05T09:35:00.506Z,100338.88
2023-05-05T09:37:30.904Z,100345.66
2023-05-05T09:40:03.335Z,100329.84
2023-05-05T09:42:33.707Z,100358.97
2023-05-05T09:45:05.160Z,100350.19
2023-05-05T09:47:39.533Z,100335.50
2023-05-05T09:50:10.993Z,100337.06
2023-05-05T09:52:40.581Z,100341.72
2023-05-05T09:55:19.269Z,100353.84
2023-05-05T09:57:49.788Z,100346.34
2023-05-05T10:00:21.908Z,100328.44
2023-05-05T10:02:51.486Z,100325.94
2023-05-05T10:05:20.900Z,100334.50
2023-05-05T10:07:50.528Z,100347.44
2023-05-05T10:10:20.259Z,100312.13
2023-05-05T10:12:54.209Z,100322.41
2023-05-05T10:15:25.819Z,100337.91
2023-05-05T10:18:06.976Z,100335.44
2023-05-05T10:20:41.115Z,100331.19
2023-05-05T10:23:25.956Z,100347.56
2023-05-05T10:26:02.676Z,100327.84
2023-05-05T10:28:35.421Z,100315.84
2023-05-05T10:31:25.133Z,100320.13
2023-05-05T10:34:07.562Z,100319.25
2023-05-05T10:36:41.258Z,100311.47
2023-05-05T10:39:11.647Z,100326.03
2023-05-05T10:41:41.223Z,100312.25
2023-05-05T10:44:18.898Z,100323.50
2023-05-05T10:46:51.256Z,100320.97
2023-05-05T10:49:27.615Z,100311.53
2023-05-05T10:52:02.362Z,100320.16
2023-05-05T10:54:43.849Z,100339.97
2023-05-05T10:57:16.706Z,100296.03
2023-05-05T10:59:47.203Z,100323.56
2023-05-05T11:02:30.098Z,100327.91
2023-05-05T11:05:14.813Z,100292.53
2023-05-05T11:07:44.811Z,100318.38
2023-05-05T11:10:16.177Z,100271.84
2023-05-05T11:15:58.981Z,100288.28
2023-05-05T11:18:36.332Z,100334.78
2023-05-05T11:21:20.588Z,100345.97
2023-05-05T11:23:52.610Z,100294.22
2023-05-05T11:26:42.248Z,100298.63
2023-05-05T11:29:17.036Z,100325.16
2023-05-05T11:31:47.502Z,100288.94
2023-05-05T11:34:31.589Z,100334.44
2023-05-05T11:37:04.391Z,100320.69
2023-05-05T11:39:42.209Z,100289.72
2023-05-05T11:42:32.192Z,100330.22
2023-05-05T11:45:02.052Z,100309.66
2023-05-05T11:47:39.203Z,100267.53
2023-05-05T11:53:03.462Z,100325.97
2023-05-05T11:55:32.896Z,100322.63
2023-05-05T11:58:02.353Z,100325.97
2023-05-05T12:00:35.536Z,100336.28
2023-05-05T12:03:07.728Z,100328.53
2023-05-05T12:05:44.363Z,100347.25
2023-05-05T12:08:14.710Z,100356.63
2023-05-05T12:10:50.854Z,100354.78
2023-05-05T12:13:21.383Z,100358.25
2023-05-05T12:15:51.080Z,100344.59
2023-05-05T12:18:20.956Z,100269.69
2023-05-05T12:21:05.483Z,100350.53
2023-05-05T12:23:40.251Z,100339.25
2023-05-05T12:26:15.104Z,100341.81
2023-05-05T12:28:48.062Z,100339.13
2023-05-05T12:31:22.622Z,100326.28
2023-05-05T12:33:53.078Z,100327.72
2023-05-05T12:36:24.633Z,100351.22
2023-05-05T12:38:54.386Z,100319.41
2023-05-05T12:41:23.862Z,100340.81
2023-05-05T12:51:55.594Z,100333.41
2023-05-05T12:54:29.256Z,100309.41
2023-05-05T12:57:03.381Z,100341.28
2023-05-05T12:59:34.060Z,100323.25
2023-05-05T13:02:09.786Z,100294.81
2023-05-05T13:04:50.255Z,100321.38
2023-05-05T13:07:23.281Z,100326.47
2023-05-05T13:09:53.178Z,100314.28
2023-05-05T13:12:23.316Z,100330.53
2023-05-05T13:14:59.399Z,100335.63
2023-05-05T13:17:28.778Z,100312.38
2023-05-05T13:20:03.652Z,100336.41
2023-05-05T13:22:40.223Z,100346.72
2023-05-05T13:25:09.891Z,100315.03
2023-05-05T13:27:39.923Z,100345.94
2023-05-05T13:32:45.967Z,100338.34
2023-05-05T13:35:16.583Z,100334.94
2023-05-05T13:37:48.189Z,100335.00
2023-05-05T13:40:17.508Z,100309.34
2023-05-05T13:42:46.779Z,100338.34
2023-05-05T13:45:17.127Z,100345.75
2023-05-05T13:47:46.438Z,100323.19
2023-05-05T13:50:16.065Z,100314.75
2023-05-05T13:52:45.323Z,100344.31
2023-05-05T13:55:17.377Z,100330.75
2023-05-05T13:57:46.936Z,100330.03
2023-05-05T14:00:17.864Z,100335.09
2023-05-05T14:02:52.488Z,100345.50
2023-05-05T14:05:22.015Z,100336.03
2023-05-05T14:07:51.831Z,100343.69
2023-05-05T14:13:09.893Z,100340.03
2023-05-05T14:15:39.440Z,100347.72
2023-05-05T14:18:09.353Z,100323.66
2023-05-05T14:20:38.564Z,100343.47
2023-05-05T14:23:07.904Z,100357.19
2023-05-05T14:25:39.319Z,100345.06
2023-05-05T14:28:14.024Z,100352.56
2023-05-05T14:30:43.441Z,100356.41
2023-05-05T14:35:52.995Z,100362.34
2023-05-05T14:38:22.300Z,100343.63
2023-05-05T14:40:53.691Z,100343.94
2023-05-05T14:43:23.767Z,100356.22
2023-05-05T14:45:54.694Z,100352.84
2023-05-05T14:48:24.245Z,100327.16
2023-05-05T14:50:53.977Z,100343.41
2023-05-05T14:53:34.751Z,100340.00
2023-05-05T14:56:12.527Z,100345.03
2023-05-05T14:58:48.877Z,100320.94
2023-05-05T15:01:20.244Z,100313.13
2023-05-05T15:06:29.924Z,100348.94
2023-05-05T15:08:59.247Z,100333.38
2023-05-05T15:11:30.609Z,100341.03
2023-05-05T15:14:00.067Z,100344.41
2023-05-05T15:16:29.542Z,100339.41
2023-05-05T15:19:04.003Z,100334.28
2023-05-05T15:21:33.879Z,100338.50
2023-05-05T15:24:04.282Z,100317.81
2023-05-05T15:26:35.764Z,100332.56
2023-05-05T15:29:05.197Z,100325.78
2023-05-05T15:31:34.822Z,100335.25
2023-05-05T15:34:04.326Z,100315.47
2023-05-05T15:36:33.599Z,100321.34
2023-05-05T15:39:03.069Z,100334.06
2023-05-05T15:41:32.364Z,100307.34
2023-05-05T15:44:04.661Z,100331.41
2023-05-05T15:46:34.978Z,100345.19
2023-05-05T15:49:04.736Z,100333.25
2023-05-05T15:51:34.107Z,100340.63
2023-05-05T15:54:03.464Z,100332.34
2023-05-05T15:56:33.483Z,100340.97
2023-05-05T15:59:09.328Z,100323.91
2023-05-05T16:01:39.090Z,100318.13
2023-05-05T16:04:08.448Z,100321.69
2023-05-05T16:06:37.967Z,100331.25
2023-05-05T16:09:07.467Z,100327.00
2023-05-05T16:11:37.128Z,100332.09
2023-05-05T16:14:13.528Z,100336.41
2023-05-05T16:16:43.622Z,100336.31
2023-05-05T16:19:14.397Z,100345.00
2023-05-05T16:21:43.665Z,100337.16
2023-05-05T16:24:20.810Z,100354.22
2023-05-05T16:27:09.273Z,100354.09
2023-05-05T16:29:46.576Z,100332.47
2023-05-05T16:32:20.831Z,100326.34
2023-05-05T16:34:50.275Z,100325.38
2023-05-05T16:37:19.967Z,100325.94
2023-05-05T16:40:01.680Z,100342.13
2023-05-05T16:42:32.705Z,100337.06
2023-05-05T16:45:09.574Z,100320.78
2023-05-05T16:47:39.218Z,100345.59
2023-05-05T16:50:14.186Z,100296.38
2023-05-05T16:52:43.593Z,100335.00
2023-05-05T16:55:12.801Z,100325.25
2023-05-05T16:57:42.336Z,100328.25
2023-05-05T17:00:15.167Z,100331.44
2023-05-05T17:02:44.790Z,100332.84
2023-05-05T17:05:17.193Z,100335.81
2023-05-05T17:07:52.888Z,100343.31
2023-05-05T17:10:27.279Z,100360.81
2023-05-05T17:12:57.207Z,100343.41
2023-05-05T17:15:28.534Z,100353.78
2023-05-05T17:18:03.362Z,100353.56
2023-05-05T17:20:35.036Z,100354.38
2023-05-05T17:23:04.719Z,100353.94
2023-05-05T17:25:46.958Z,100344.22
2023-05-05T17:28:17.303Z,100356.19
2023-05-05T17:30:48.759Z,100354.19
2023-05-05T17:33:21.077Z,100343.00
2023-05-05T17:35:50.498Z,100358.44
2023-05-05T17:38:19.787Z,100340.22
2023-05-05T17:40:49.781Z,100349.78
2023-05-05T17:43:19.103Z,100347.22
2023-05-05T17:45:50.536Z,100352.94
2023-05-05T17:48:20.141Z,100346.41
2023-05-05T17:51:09.354Z,100340.50
2023-05-05T17:53:39.119Z,100338.97
2023-05-05T17:56:09.207Z,100344.25
2023-05-05T17:58:38.875Z,100352.72
2023-05-05T18:01:13.175Z,100354.09
2023-05-05T18:03:42.680Z,100351.34
2023-05-05T18:06:11.947Z,100353.63
2023-05-05T18:08:41.229Z,100338.53
2023-05-05T18:11:10.478Z,100352.59
2023-05-05T18:13:39.872Z,100356.22
2023-05-05T18:16:11.481Z,100358.84
2023-05-05T18:18:41.365Z,100338.13
2023-05-05T18:21:11.850Z,100353.94
2023-05-05T18:23:41.227Z,100357.34
2023-05-05T18:26:10.681Z,100351.03
2023-05-05T18:28:40.180Z,100353.31
2023-05-05T18:31:11.450Z,100343.53
2023-05-05T18:33:41.046Z,100352.97
2023-05-05T18:36:15.740Z,100352.19
2023-05-05T18:38:50.769Z,100354.88
2023-05-05T18:41:20.198Z,100353.44
2023-05-05T18:43:56.475Z,100364.38
2023-05-05T18:46:27.902Z,100355.63
2023-05-05T18:48:57.291Z,100351.25
2023-05-05T18:51:27.588Z,100365.13
2023-05-05T18:53:57.116Z,100362.31
2023-05-05T18:56:26.908Z,100363.38
2023-05-05T18:58:56.439Z,100357.34
2023-05-05T19:01:32.812Z,100358.19
2023-05-05T19:04:02.232Z,100362.34
2023-05-05T19:06:32.100Z,100361.34
2023-05-05T19:11:37.844Z,100361.28
2023-05-05T19:14:07.009Z,100358.69
2023-05-05T19:16:38.313Z,100361.97
2023-05-05T19:19:07.802Z,100355.94
2023-05-05T19:21:37.099Z,100337.69
2023-05-05T19:24:10.515Z,100332.53
2023-05-05T19:26:40.245Z,100353.19
2023-05-05T19:29:09.489Z,100360.97
2023-05-05T19:31:40.959Z,100351.69
2023-05-05T19:34:15.459Z,100354.34
2023-05-05T19:36:44.777Z,100356.88
2023-05-05T19:39:15.744Z,100350.94
2023-05-05T19:41:45.625Z,100360.22
2023-05-05T19:44:15.206Z,100345.78
2023-05-05T19:46:51.814Z,100357.84
2023-05-05T19:49:21.242Z,100352.56
2023-05-05T19:51:51.736Z,100355.75
2023-05-05T19:54:21.048Z,100353.25
2023-05-05T19:56:50.297Z,100363.59
2023-05-05T19:59:20.019Z,100359.41
2023-05-05T20:01:56.938Z,100355.94
2023-05-05T20:04:26.389Z,100347.84
2023-05-05T20:07:01.809Z,100363.16
2023-05-05T20:09:31.576Z,100368.81
2023-05-05T20:12:01.994Z,100358.56
2023-05-05T20:14:32.118Z,100359.97
2023-05-05T20:17:03.358Z,100361.66
2023-05-05T20:19:37.809Z,100356.59
2023-05-05T20:22:07.230Z,100355.72
2023-05-05T20:24:36.721Z,100357.06
2023-05-05T20:27:12.472Z,100361.16
2023-05-05T20:29:47.003Z,100354.28
2023-05-05T20:32:25.264Z,100360.09
2023-05-05T20:34:54.598Z,100357.25
2023-05-05T20:37:26.680Z,100364.66
2023-05-05T20:39:57.887Z,100352.34
2023-05-05T20:42:34.081Z,100361.00
2023-05-05T20:45:03.590Z,100355.00
2023-05-05T20:47:38.208Z,100365.94
2023-05-05T20:50:09.299Z,100352.03
2023-05-05T20:52:43.839Z,100353.94
2023-05-05T20:55:13.286Z,100361.53
2023-05-05T20:57:42.624Z,100328.69
2023-05-05T21:00:12.645Z,100362.44
2023-05-05T21:02:44.047Z,100352.06
2023-05-05T21:05:18.980Z,100354.59
2023-05-05T21:07:48.284Z,100358.44
2023-05-05T21:10:17.576Z,100361.59
2023-05-05T21:12:46.926Z,100360.59
2023-05-05T21:15:16.297Z,100355.06
2023-05-05T21:17:53.016Z,100342.88
2023-05-05T21:20:22.608Z,100356.72
2023-05-05T21:22:52.100Z,100354.13
2023-05-05T21:25:27.372Z,100359.78
2023-05-05T21:27:56.581Z,100346.34
2023-05-05T21:30:26.019Z,100347.25
2023-05-05T21:32:57.239Z,100356.31
2023-05-05T21:35:26.540Z,100355.31
2023-05-05T21:37:55.794Z,100344.06
2023-05-05T21:43:00.682Z,100350.97
2023-05-05T21:45:29.826Z,100333.47
2023-05-05T21:48:06.904Z,100352.75
2023-05-05T21:50:36.863Z,100347.72
2023-05-05T21:53:06.099Z,100346.59
2023-05-05T21:55:35.618Z,100346.97
2023-05-05T21:58:04.811Z,100346.13
2023-05-05T22:00:34.785Z,100350.19
2023-05-05T22:05:41.586Z,100345.53
2023-05-05T22:08:11.482Z,100361.47
2023-05-05T22:10:41.466Z,100350.25
2023-05-05T22:13:15.800Z,100344.25
2023-05-05T22:15:47.039Z,100354.28
2023-05-05T22:18:18.997Z,100362.78
2023-05-05T22:20:48.575Z,100363.63
2023-05-05T22:23:17.958Z,100358.38
2023-05-05T22:25:47.093Z,100362.31
2023-05-05T22:28:16.358Z,100364.94
2023-05-05T22:30:46.047Z,100368.97
2023-05-05T22:33:15.304Z,100358.75
2023-05-05T22:35:46.570Z,100366.41
2023-05-05T22:38:20.870Z,100351.06
2023-05-05T22:40:55.369Z,100359.56
2023-05-05T22:43:24.713Z,100364.56
2023-05-05T22:45:54.138Z,100365.13
2023-05-05T22:48:23.488Z,100353.72
2023-05-05T22:50:54.681Z,100361.66
2023-05-05T22:53:24.112Z,100358.25
2023-05-05T22:55:58.445Z,100363.06
2023-05-05T22:58:38.015Z,100356.72
2023-05-05T23:01:07.556Z,100365.28
2023-05-05T23:03:37.003Z,100350.91
2023-05-05T23:06:08.721Z,100367.56
2023-05-05T23:08:38.033Z,100363.06
2023-05-05T23:11:07.526Z,100364.75
2023-05-05T23:13:42.294Z,100371.50
2023-05-05T23:16:11.792Z,100374.78
2023-05-05T23:18:41.099Z,100373.78
2023-05-05T23:23:48.199Z,100371.19
2023-05-05T23:26:21.144Z,100341.59
2023-05-05T23:28:50.468Z,100378.78
2023-05-05T23:31:19.707Z,100361.22
2023-05-05T23:33:49.071Z,100366.38
2023-05-05T23:36:27.140Z,100376.19
2023-05-05T23:38:56.757Z,100385.13
2023-05-05T23:41:25.980Z,100374.69
2023-05-05T23:43:55.312Z,100386.63
2023-05-05T23:46:24.788Z,100383.22
2023-05-05T23:48:54.813Z,100388.03
2023-05-05T23:51:26.936Z,100382.28
2023-05-05T23:53:58.748Z,100383.22
2023-05-05T23:56:28.099Z,100388.47
2023-05-05T23:58:58.454Z,100385.34
